sensor_id;sensor_type;location;lat;lon;timestamp;pressure;altitude;pressure_sealevel;temperature;humidity
74329;BME280;62749;51.982;5.916;2022-11-02T00:01:52;101232.84;;;14.86;62.57
74329;BME280;62749;51.982;5.916;2022-11-02T00:04:21;101237.88;;;14.75;62.83
74329;BME280;62749;51.982;5.916;2022-11-02T00:06:53;101235.38;;;14.71;63.33
74329;BME280;62749;51.982;5.916;2022-11-02T00:09:22;101251.16;;;14.75;62.78
74329;BME280;62749;51.982;5.916;2022-11-02T00:11:52;101252.53;;;14.82;62.70
74329;BME280;62749;51.982;5.916;2022-11-02T00:14:21;101243.63;;;14.83;62.70
74329;BME280;62749;51.982;5.916;2022-11-02T00:16:50;101229.00;;;14.74;63.52
74329;BME280;62749;51.982;5.916;2022-11-02T00:19:20;101223.38;;;14.80;63.23
74329;BME280;62749;51.982;5.916;2022-11-02T00:21:50;101224.09;;;14.49;65.27
74329;BME280;62749;51.982;5.916;2022-11-02T00:24:23;101226.19;;;14.60;64.80
74329;BME280;62749;51.982;5.916;2022-11-02T00:26:53;101236.59;;;14.64;64.72
74329;BME280;62749;51.982;5.916;2022-11-02T00:29:22;101244.59;;;14.64;66.26
74329;BME280;62749;51.982;5.916;2022-11-02T00:31:52;101238.56;;;14.43;69.12
74329;BME280;62749;51.982;5.916;2022-11-02T00:34:21;101229.25;;;14.17;70.13
74329;BME280;62749;51.982;5.916;2022-11-02T00:36:51;101232.66;;;14.01;70.08
74329;BME280;62749;51.982;5.916;2022-11-02T00:39:29;101231.91;;;13.99;70.73
74329;BME280;62749;51.982;5.916;2022-11-02T00:41:58;101234.69;;;13.96;70.41
74329;BME280;62749;51.982;5.916;2022-11-02T00:44:27;101232.97;;;13.95;71.06
74329;BME280;62749;51.982;5.916;2022-11-02T00:46:56;101233.91;;;13.94;70.90
74329;BME280;62749;51.982;5.916;2022-11-02T00:49:26;101232.19;;;13.93;71.01
74329;BME280;62749;51.982;5.916;2022-11-02T00:51:55;101230.00;;;13.84;71.41
74329;BME280;62749;51.982;5.916;2022-11-02T00:54:25;101231.53;;;13.70;71.09
74329;BME280;62749;51.982;5.916;2022-11-02T00:56:57;101237.41;;;13.77;70.76
74329;BME280;62749;51.982;5.916;2022-11-02T00:59:26;101228.63;;;13.75;70.90
74329;BME280;62749;51.982;5.916;2022-11-02T01:01:55;101224.16;;;13.75;70.89
74329;BME280;62749;51.982;5.916;2022-11-02T01:04:25;101220.44;;;13.79;70.18
74329;BME280;62749;51.982;5.916;2022-11-02T01:06:54;101219.75;;;13.76;70.50
74329;BME280;62749;51.982;5.916;2022-11-02T01:09:23;101221.16;;;13.83;69.52
74329;BME280;62749;51.982;5.916;2022-11-02T01:11:53;101227.94;;;13.89;69.30
74329;BME280;62749;51.982;5.916;2022-11-02T01:14:25;101225.59;;;13.83;69.16
74329;BME280;62749;51.982;5.916;2022-11-02T01:16:54;101232.50;;;13.87;68.92
74329;BME280;62749;51.982;5.916;2022-11-02T01:19:25;101227.81;;;13.92;69.28
74329;BME280;62749;51.982;5.916;2022-11-02T01:21:54;101223.56;;;13.88;69.80
74329;BME280;62749;51.982;5.916;2022-11-02T01:24:24;101229.19;;;13.81;70.56
74329;BME280;62749;51.982;5.916;2022-11-02T01:26:53;101230.41;;;13.93;70.03
74329;BME280;62749;51.982;5.916;2022-11-02T01:29:25;101246.72;;;14.03;70.10
74329;BME280;62749;51.982;5.916;2022-11-02T01:31:55;101236.34;;;13.99;69.85
74329;BME280;62749;51.982;5.916;2022-11-02T01:34:24;101237.63;;;13.90;70.33
74329;BME280;62749;51.982;5.916;2022-11-02T01:36:54;101233.50;;;13.84;71.05
74329;BME280;62749;51.982;5.916;2022-11-02T01:39:23;101241.09;;;13.92;70.70
74329;BME280;62749;51.982;5.916;2022-11-02T01:41:53;101233.22;;;13.90;69.96
74329;BME280;62749;51.982;5.916;2022-11-02T01:44:31;101232.56;;;13.85;70.90
74329;BME280;62749;51.982;5.916;2022-11-02T01:47:06;101261.63;;;13.88;70.69
74329;BME280;62749;51.982;5.916;2022-11-02T01:49:40;101297.22;;;13.84;70.28
74329;BME280;62749;51.982;5.916;2022-11-02T01:52:16;101288.69;;;13.58;67.82
74329;BME280;62749;51.982;5.916;2022-11-02T01:54:51;101318.22;;;13.11;68.30
74329;BME280;62749;51.982;5.916;2022-11-02T01:57:26;101302.69;;;12.82;66.96
74329;BME280;62749;51.982;5.916;2022-11-02T02:00:04;101291.53;;;12.74;66.97
74329;BME280;62749;51.982;5.916;2022-11-02T02:02:39;101291.25;;;12.59;66.36
74329;BME280;62749;51.982;5.916;2022-11-02T02:05:13;101290.19;;;12.43;67.21
74329;BME280;62749;51.982;5.916;2022-11-02T02:07:44;101287.56;;;12.43;66.63
74329;BME280;62749;51.982;5.916;2022-11-02T02:10:14;101301.72;;;12.42;67.47
74329;BME280;62749;51.982;5.916;2022-11-02T02:12:43;101307.66;;;12.26;66.93
74329;BME280;62749;51.982;5.916;2022-11-02T02:15:16;101307.84;;;12.22;67.81
74329;BME280;62749;51.982;5.916;2022-11-02T02:17:51;101314.25;;;12.16;67.95
74329;BME280;62749;51.982;5.916;2022-11-02T02:20:41;101306.19;;;12.19;68.42
74329;BME280;62749;51.982;5.916;2022-11-02T02:29:27;101281.47;;;12.19;69.22
74329;BME280;62749;51.982;5.916;2022-11-02T02:32:06;101282.06;;;12.25;68.93
74329;BME280;62749;51.982;5.916;2022-11-02T02:34:47;101275.00;;;12.26;68.83
74329;BME280;62749;51.982;5.916;2022-11-02T02:37:25;101273.22;;;12.26;69.97
74329;BME280;62749;51.982;5.916;2022-11-02T02:40:02;101275.94;;;12.25;69.43
74329;BME280;62749;51.982;5.916;2022-11-02T02:42:39;101263.97;;;12.15;70.02
74329;BME280;62749;51.982;5.916;2022-11-02T02:45:17;101258.56;;;12.18;70.65
74329;BME280;62749;51.982;5.916;2022-11-02T02:47:54;101270.94;;;12.17;70.03
74329;BME280;62749;51.982;5.916;2022-11-02T02:50:29;101275.06;;;12.24;69.89
74329;BME280;62749;51.982;5.916;2022-11-02T02:53:15;101268.00;;;12.25;69.78
74329;BME280;62749;51.982;5.916;2022-11-02T02:55:48;101270.44;;;12.30;68.68
74329;BME280;62749;51.982;5.916;2022-11-02T02:58:23;101282.16;;;12.24;69.90
74329;BME280;62749;51.982;5.916;2022-11-02T03:00:59;101278.31;;;12.31;69.17
74329;BME280;62749;51.982;5.916;2022-11-02T03:03:33;101279.31;;;12.28;69.71
74329;BME280;62749;51.982;5.916;2022-11-02T03:06:11;101284.75;;;12.46;68.71
74329;BME280;62749;51.982;5.916;2022-11-02T03:08:48;101274.03;;;12.49;68.85
74329;BME280;62749;51.982;5.916;2022-11-02T03:11:21;101279.19;;;12.52;68.83
74329;BME280;62749;51.982;5.916;2022-11-02T03:14:06;101282.56;;;12.56;68.49
74329;BME280;62749;51.982;5.916;2022-11-02T03:17:00;101279.59;;;12.64;68.52
74329;BME280;62749;51.982;5.916;2022-11-02T03:19:40;101277.69;;;12.67;68.49
74329;BME280;62749;51.982;5.916;2022-11-02T03:22:22;101271.56;;;12.65;69.09
74329;BME280;62749;51.982;5.916;2022-11-02T03:24:59;101278.44;;;12.71;68.47
74329;BME280;62749;51.982;5.916;2022-11-02T03:27:38;101275.78;;;12.71;68.01
74329;BME280;62749;51.982;5.916;2022-11-02T03:30:13;101282.28;;;12.84;68.19
74329;BME280;62749;51.982;5.916;2022-11-02T03:32:58;101291.88;;;12.87;68.29
74329;BME280;62749;51.982;5.916;2022-11-02T03:35:38;101287.69;;;12.81;69.40
74329;BME280;62749;51.982;5.916;2022-11-02T03:38:14;101274.06;;;12.70;68.99
74329;BME280;62749;51.982;5.916;2022-11-02T03:40:49;101276.50;;;12.74;68.44
74329;BME280;62749;51.982;5.916;2022-11-02T03:43:22;101276.28;;;12.79;68.69
74329;BME280;62749;51.982;5.916;2022-11-02T03:45:55;101284.16;;;12.81;68.24
74329;BME280;62749;51.982;5.916;2022-11-02T03:51:06;101292.88;;;12.84;68.15
74329;BME280;62749;51.982;5.916;2022-11-02T03:53:45;101281.31;;;12.85;67.87
74329;BME280;62749;51.982;5.916;2022-11-02T03:56:22;101292.94;;;12.83;67.83
74329;BME280;62749;51.982;5.916;2022-11-02T03:58:55;101289.56;;;12.79;68.17
74329;BME280;62749;51.982;5.916;2022-11-02T04:01:26;101296.38;;;12.85;67.37
74329;BME280;62749;51.982;5.916;2022-11-02T04:03:57;101296.44;;;12.83;67.60
74329;BME280;62749;51.982;5.916;2022-11-02T04:06:29;101297.63;;;12.76;67.90
74329;BME280;62749;51.982;5.916;2022-11-02T04:08:59;101295.19;;;12.71;67.86
74329;BME280;62749;51.982;5.916;2022-11-02T04:11:30;101305.66;;;12.74;67.74
74329;BME280;62749;51.982;5.916;2022-11-02T04:14:12;101303.22;;;12.70;68.25
74329;BME280;62749;51.982;5.916;2022-11-02T04:16:54;101306.47;;;12.77;67.46
74329;BME280;62749;51.982;5.916;2022-11-02T04:19:43;101310.56;;;12.84;67.12
74329;BME280;62749;51.982;5.916;2022-11-02T04:22:13;101309.56;;;12.86;66.94
74329;BME280;62749;51.982;5.916;2022-11-02T04:24:55;101295.91;;;12.75;67.43
74329;BME280;62749;51.982;5.916;2022-11-02T04:27:50;101317.72;;;12.82;67.06
74329;BME280;62749;51.982;5.916;2022-11-02T04:30:33;101320.50;;;12.79;67.15
74329;BME280;62749;51.982;5.916;2022-11-02T04:33:03;101315.00;;;12.83;66.73
74329;BME280;62749;51.982;5.916;2022-11-02T04:35:45;101325.66;;;12.82;66.81
74329;BME280;62749;51.982;5.916;2022-11-02T04:38:17;101341.53;;;12.83;66.13
74329;BME280;62749;51.982;5.916;2022-11-02T04:40:59;101338.72;;;12.86;66.38
74329;BME280;62749;51.982;5.916;2022-11-02T04:43:40;101352.84;;;12.87;66.43
74329;BME280;62749;51.982;5.916;2022-11-02T04:46:10;101343.25;;;12.84;66.61
74329;BME280;62749;51.982;5.916;2022-11-02T04:48:39;101345.63;;;12.91;65.68
74329;BME280;62749;51.982;5.916;2022-11-02T04:51:09;101354.59;;;12.88;66.84
74329;BME280;62749;51.982;5.916;2022-11-02T04:53:41;101369.38;;;12.94;65.57
74329;BME280;62749;51.982;5.916;2022-11-02T04:56:10;101369.41;;;12.92;65.68
74329;BME280;62749;51.982;5.916;2022-11-02T04:58:40;101375.53;;;12.94;65.83
74329;BME280;62749;51.982;5.916;2022-11-02T05:01:13;101387.25;;;12.88;66.11
74329;BME280;62749;51.982;5.916;2022-11-02T05:03:45;101383.94;;;12.83;66.52
74329;BME280;62749;51.982;5.916;2022-11-02T05:06:16;101394.34;;;12.88;65.83
74329;BME280;62749;51.982;5.916;2022-11-02T05:08:49;101390.59;;;12.94;66.43
74329;BME280;62749;51.982;5.916;2022-11-02T05:11:18;101384.97;;;13.01;65.85
74329;BME280;62749;51.982;5.916;2022-11-02T05:13:48;101387.59;;;13.01;65.63
74329;BME280;62749;51.982;5.916;2022-11-02T05:16:17;101377.66;;;12.86;66.00
74329;BME280;62749;51.982;5.916;2022-11-02T05:18:46;101388.06;;;12.91;65.96
74329;BME280;62749;51.982;5.916;2022-11-02T05:21:16;101392.31;;;12.95;66.04
74329;BME280;62749;51.982;5.916;2022-11-02T05:23:45;101400.47;;;12.90;66.30
74329;BME280;62749;51.982;5.916;2022-11-02T05:26:17;101400.47;;;12.90;66.31
74329;BME280;62749;51.982;5.916;2022-11-02T05:31:58;101416.63;;;12.84;66.48
74329;BME280;62749;51.982;5.916;2022-11-02T05:34:27;101411.91;;;12.91;66.22
74329;BME280;62749;51.982;5.916;2022-11-02T05:36:57;101419.75;;;12.94;66.13
74329;BME280;62749;51.982;5.916;2022-11-02T05:39:26;101414.38;;;12.95;66.20
74329;BME280;62749;51.982;5.916;2022-11-02T05:41:58;101418.22;;;12.88;66.85
74329;BME280;62749;51.982;5.916;2022-11-02T05:44:27;101427.72;;;12.94;66.83
74329;BME280;62749;51.982;5.916;2022-11-02T05:46:57;101431.81;;;13.01;66.23
74329;BME280;62749;51.982;5.916;2022-11-02T05:49:26;101424.94;;;12.97;66.48
74329;BME280;62749;51.982;5.916;2022-11-02T05:51:55;101441.78;;;12.96;66.59
74329;BME280;62749;51.982;5.916;2022-11-02T05:54:25;101438.84;;;13.02;65.99
74329;BME280;62749;51.982;5.916;2022-11-02T05:56:58;101447.91;;;12.96;66.26
74329;BME280;62749;51.982;5.916;2022-11-02T05:59:27;101440.88;;;12.95;66.39
74329;BME280;62749;51.982;5.916;2022-11-02T06:01:57;101453.34;;;12.93;66.57
74329;BME280;62749;51.982;5.916;2022-11-02T06:04:26;101455.94;;;12.95;66.65
74329;BME280;62749;51.982;5.916;2022-11-02T06:06:55;101461.19;;;12.96;66.85
74329;BME280;62749;51.982;5.916;2022-11-02T06:09:25;101457.06;;;12.89;66.58
74329;BME280;62749;51.982;5.916;2022-11-02T06:11:54;101486.44;;;12.84;66.56
74329;BME280;62749;51.982;5.916;2022-11-02T06:14:26;101467.88;;;12.84;66.36
74329;BME280;62749;51.982;5.916;2022-11-02T06:16:56;101470.56;;;12.83;66.96
74329;BME280;62749;51.982;5.916;2022-11-02T06:19:25;101476.78;;;12.82;66.74
74329;BME280;62749;51.982;5.916;2022-11-02T06:21:55;101475.94;;;12.81;67.05
74329;BME280;62749;51.982;5.916;2022-11-02T06:24:24;101490.13;;;12.80;67.07
74329;BME280;62749;51.982;5.916;2022-11-02T06:26:54;101501.34;;;12.87;66.59
74329;BME280;62749;51.982;5.916;2022-11-02T06:29:26;101506.88;;;12.81;66.86
74329;BME280;62749;51.982;5.916;2022-11-02T06:31:55;101502.69;;;12.75;66.86
74329;BME280;62749;51.982;5.916;2022-11-02T06:34:24;101512.75;;;12.67;67.21
74329;BME280;62749;51.982;5.916;2022-11-02T06:36:54;101514.16;;;12.76;66.85
74329;BME280;62749;51.982;5.916;2022-11-02T06:39:23;101535.19;;;12.80;67.21
74329;BME280;62749;51.982;5.916;2022-11-02T06:41:52;101537.34;;;12.70;66.97
74329;BME280;62749;51.982;5.916;2022-11-02T06:44:22;101546.56;;;12.60;67.47
74329;BME280;62749;51.982;5.916;2022-11-02T06:46:53;101553.66;;;12.59;67.74
74329;BME280;62749;51.982;5.916;2022-11-02T06:49:23;101557.28;;;12.57;68.24
74329;BME280;62749;51.982;5.916;2022-11-02T06:51:52;101570.44;;;12.60;68.29
74329;BME280;62749;51.982;5.916;2022-11-02T06:54:21;101578.78;;;12.49;68.23
74329;BME280;62749;51.982;5.916;2022-11-02T06:56:51;101574.00;;;12.35;68.11
74329;BME280;62749;51.982;5.916;2022-11-02T06:59:20;101582.97;;;12.31;68.87
74329;BME280;62749;51.982;5.916;2022-11-02T07:05:04;101604.44;;;12.23;68.91
74329;BME280;62749;51.982;5.916;2022-11-02T07:07:33;101612.50;;;12.20;69.23
74329;BME280;62749;51.982;5.916;2022-11-02T07:10:04;101610.56;;;12.25;68.79
74329;BME280;62749;51.982;5.916;2022-11-02T07:12:35;101619.59;;;12.20;69.07
74329;BME280;62749;51.982;5.916;2022-11-02T07:15:06;101632.84;;;12.20;68.96
74329;BME280;62749;51.982;5.916;2022-11-02T07:17:38;101640.94;;;12.15;69.30
74329;BME280;62749;51.982;5.916;2022-11-02T07:20:10;101639.22;;;12.14;69.53
74329;BME280;62749;51.982;5.916;2022-11-02T07:22:39;101653.03;;;12.22;69.49
74329;BME280;62749;51.982;5.916;2022-11-02T07:25:09;101648.66;;;12.21;69.28
74329;BME280;62749;51.982;5.916;2022-11-02T07:27:39;101656.84;;;12.15;69.33
74329;BME280;62749;51.982;5.916;2022-11-02T07:30:08;101659.38;;;12.18;69.46
74329;BME280;62749;51.982;5.916;2022-11-02T07:32:38;101665.72;;;12.14;69.27
74329;BME280;62749;51.982;5.916;2022-11-02T07:35:12;101673.59;;;12.16;69.00
74329;BME280;62749;51.982;5.916;2022-11-02T07:37:43;101678.03;;;12.15;69.21
74329;BME280;62749;51.982;5.916;2022-11-02T07:40:12;101685.09;;;12.15;69.33
74329;BME280;62749;51.982;5.916;2022-11-02T07:42:43;101692.78;;;12.22;69.19
74329;BME280;62749;51.982;5.916;2022-11-02T07:45:13;101689.78;;;12.33;68.75
74329;BME280;62749;51.982;5.916;2022-11-02T07:47:42;101698.38;;;12.40;68.62
74329;BME280;62749;51.982;5.916;2022-11-02T07:50:17;101689.50;;;12.41;68.22
74329;BME280;62749;51.982;5.916;2022-11-02T07:52:48;101704.41;;;12.43;68.25
74329;BME280;62749;51.982;5.916;2022-11-02T07:55:20;101713.34;;;12.41;68.53
74329;BME280;62749;51.982;5.916;2022-11-02T07:57:53;101705.06;;;12.50;67.87
74329;BME280;62749;51.982;5.916;2022-11-02T08:00:24;101706.72;;;12.53;67.52
74329;BME280;62749;51.982;5.916;2022-11-02T08:02:55;101712.47;;;12.66;67.27
74329;BME280;62749;51.982;5.916;2022-11-02T08:05:29;101723.66;;;12.74;66.57
74329;BME280;62749;51.982;5.916;2022-11-02T08:08:00;101723.94;;;12.66;67.69
74329;BME280;62749;51.982;5.916;2022-11-02T08:10:32;101727.13;;;12.76;67.87
74329;BME280;62749;51.982;5.916;2022-11-02T08:13:02;101731.34;;;12.82;69.05
74329;BME280;62749;51.982;5.916;2022-11-02T08:15:31;101732.44;;;12.76;69.08
74329;BME280;62749;51.982;5.916;2022-11-02T08:18:06;101731.44;;;12.79;68.56
74329;BME280;62749;51.982;5.916;2022-11-02T08:20:38;101726.59;;;12.66;68.99
74329;BME280;62749;51.982;5.916;2022-11-02T08:23:09;101738.06;;;12.67;67.82
74329;BME280;62749;51.982;5.916;2022-11-02T08:25:39;101750.75;;;12.58;67.71
74329;BME280;62749;51.982;5.916;2022-11-02T08:28:12;101750.84;;;12.55;69.19
74329;BME280;62749;51.982;5.916;2022-11-02T08:30:42;101753.09;;;12.66;67.88
74329;BME280;62749;51.982;5.916;2022-11-02T08:33:13;101752.41;;;12.61;69.56
74329;BME280;62749;51.982;5.916;2022-11-02T08:35:47;101754.75;;;12.45;69.97
74329;BME280;62749;51.982;5.916;2022-11-02T08:38:19;101747.47;;;12.50;71.39
74329;BME280;62749;51.982;5.916;2022-11-02T08:40:49;101752.44;;;12.59;69.22
74329;BME280;62749;51.982;5.916;2022-11-02T08:43:19;101755.91;;;12.62;68.09
74329;BME280;62749;51.982;5.916;2022-11-02T08:45:48;101764.69;;;12.64;68.36
74329;BME280;62749;51.982;5.916;2022-11-02T08:48:18;101757.63;;;12.63;67.95
74329;BME280;62749;51.982;5.916;2022-11-02T08:50:50;101776.66;;;12.76;68.10
74329;BME280;62749;51.982;5.916;2022-11-02T08:53:19;101779.56;;;12.68;66.80
74329;BME280;62749;51.982;5.916;2022-11-02T08:55:49;101778.47;;;12.73;66.17
74329;BME280;62749;51.982;5.916;2022-11-02T08:58:18;101780.75;;;12.84;66.84
74329;BME280;62749;51.982;5.916;2022-11-02T09:00:47;101784.34;;;12.83;65.78
74329;BME280;62749;51.982;5.916;2022-11-02T09:03:17;101780.78;;;12.83;66.96
74329;BME280;62749;51.982;5.916;2022-11-02T09:05:56;101779.16;;;13.04;66.06
74329;BME280;62749;51.982;5.916;2022-11-02T09:08:26;101786.75;;;13.13;64.64
74329;BME280;62749;51.982;5.916;2022-11-02T09:11:01;101781.81;;;13.04;65.33
74329;BME280;62749;51.982;5.916;2022-11-02T09:13:30;101784.81;;;13.18;64.81
74329;BME280;62749;51.982;5.916;2022-11-02T09:16:00;101792.97;;;13.14;65.27
74329;BME280;62749;51.982;5.916;2022-11-02T09:18:30;101792.53;;;13.25;64.73
74329;BME280;62749;51.982;5.916;2022-11-02T09:21:05;101787.13;;;13.28;64.43
74329;BME280;62749;51.982;5.916;2022-11-02T09:23:48;101787.38;;;13.45;64.27
74329;BME280;62749;51.982;5.916;2022-11-02T09:26:17;101796.66;;;13.57;63.75
74329;BME280;62749;51.982;5.916;2022-11-02T09:29:08;101797.38;;;13.85;63.48
74329;BME280;62749;51.982;5.916;2022-11-02T09:31:38;101803.34;;;13.90;63.08
74329;BME280;62749;51.982;5.916;2022-11-02T09:34:07;101812.63;;;14.02;62.02
74329;BME280;62749;51.982;5.916;2022-11-02T09:36:41;101807.69;;;13.92;62.82
74329;BME280;62749;51.982;5.916;2022-11-02T09:39:10;101804.78;;;13.76;63.31
74329;BME280;62749;51.982;5.916;2022-11-02T09:41:46;101811.31;;;13.90;63.70
74329;BME280;62749;51.982;5.916;2022-11-02T09:44:23;101818.66;;;14.07;62.12
74329;BME280;62749;51.982;5.916;2022-11-02T09:46:56;101828.09;;;14.14;61.57
74329;BME280;62749;51.982;5.916;2022-11-02T09:49:29;101822.84;;;14.13;62.33
74329;BME280;62749;51.982;5.916;2022-11-02T09:52:02;101830.94;;;14.09;61.05
74329;BME280;62749;51.982;5.916;2022-11-02T09:54:39;101837.41;;;14.02;60.54
74329;BME280;62749;51.982;5.916;2022-11-02T09:57:14;101840.19;;;13.99;61.83
74329;BME280;62749;51.982;5.916;2022-11-02T09:59:44;101844.25;;;14.08;61.30
74329;BME280;62749;51.982;5.916;2022-11-02T10:02:24;101849.63;;;14.06;61.68
74329;BME280;62749;51.982;5.916;2022-11-02T10:05:13;101854.88;;;14.08;60.94
74329;BME280;62749;51.982;5.916;2022-11-02T10:08:09;101858.91;;;13.96;61.02
74329;BME280;62749;51.982;5.916;2022-11-02T10:10:52;101862.75;;;14.11;61.40
74329;BME280;62749;51.982;5.916;2022-11-02T10:13:33;101866.22;;;14.35;61.44
74329;BME280;62749;51.982;5.916;2022-11-02T10:16:11;101875.91;;;14.36;60.62
74329;BME280;62749;51.982;5.916;2022-11-02T10:18:44;101864.97;;;14.22;61.55
74329;BME280;62749;51.982;5.916;2022-11-02T10:21:19;101867.38;;;14.28;60.34
74329;BME280;62749;51.982;5.916;2022-11-02T10:23:53;101895.38;;;14.15;60.09
74329;BME280;62749;51.982;5.916;2022-11-02T10:26:27;101870.53;;;13.93;60.06
74329;BME280;62749;51.982;5.916;2022-11-02T10:29:02;101861.94;;;13.87;60.18
74329;BME280;62749;51.982;5.916;2022-11-02T10:31:33;101876.22;;;14.06;60.90
74329;BME280;62749;51.982;5.916;2022-11-02T10:34:19;101885.19;;;14.26;61.16
74329;BME280;62749;51.982;5.916;2022-11-02T10:37:04;101882.66;;;14.45;60.49
74329;BME280;62749;51.982;5.916;2022-11-02T10:39:51;101885.13;;;14.50;59.52
74329;BME280;62749;51.982;5.916;2022-11-02T10:42:39;101879.69;;;14.31;59.65
74329;BME280;62749;51.982;5.916;2022-11-02T10:45:43;101883.19;;;14.31;59.67
74329;BME280;62749;51.982;5.916;2022-11-02T10:48:27;101884.50;;;14.43;59.28
74329;BME280;62749;51.982;5.916;2022-11-02T10:51:06;101885.13;;;14.50;59.46
74329;BME280;62749;51.982;5.916;2022-11-02T10:53:40;101897.41;;;14.52;59.50
74329;BME280;62749;51.982;5.916;2022-11-02T10:56:17;101895.88;;;14.47;58.76
74329;BME280;62749;51.982;5.916;2022-11-02T10:58:54;101898.25;;;14.53;58.95
74329;BME280;62749;51.982;5.916;2022-11-02T11:01:28;101889.94;;;14.40;58.63
74329;BME280;62749;51.982;5.916;2022-11-02T11:04:00;101907.31;;;14.26;58.81
74329;BME280;62749;51.982;5.916;2022-11-02T11:06:35;101898.50;;;14.26;59.50
74329;BME280;62749;51.982;5.916;2022-11-02T11:09:12;101903.34;;;14.37;59.56
74329;BME280;62749;51.982;5.916;2022-11-02T11:11:57;101898.28;;;14.31;60.05
74329;BME280;62749;51.982;5.916;2022-11-02T11:14:29;101907.44;;;14.46;59.73
74329;BME280;62749;51.982;5.916;2022-11-02T11:17:01;101910.94;;;14.46;58.86
74329;BME280;62749;51.982;5.916;2022-11-02T11:19:35;101910.09;;;14.46;59.39
74329;BME280;62749;51.982;5.916;2022-11-02T11:22:23;101914.88;;;14.37;59.83
74329;BME280;62749;51.982;5.916;2022-11-02T11:25:20;101914.41;;;14.48;59.74
74329;BME280;62749;51.982;5.916;2022-11-02T11:27:54;101912.06;;;14.63;59.65
74329;BME280;62749;51.982;5.916;2022-11-02T11:30:26;101900.88;;;14.54;59.58
74329;BME280;62749;51.982;5.916;2022-11-02T11:32:58;101920.00;;;14.42;59.51
74329;BME280;62749;51.982;5.916;2022-11-02T11:35:31;101915.19;;;14.52;59.19
74329;BME280;62749;51.982;5.916;2022-11-02T11:38:07;101905.00;;;14.39;59.49
74329;BME280;62749;51.982;5.916;2022-11-02T11:40:43;101907.50;;;14.44;58.92
74329;BME280;62749;51.982;5.916;2022-11-02T11:43:17;101915.03;;;14.55;59.76
74329;BME280;62749;51.982;5.916;2022-11-02T11:45:54;101911.31;;;14.59;59.29
74329;BME280;62749;51.982;5.916;2022-11-02T11:48:34;101908.53;;;14.62;59.00
74329;BME280;62749;51.982;5.916;2022-11-02T11:51:28;101912.56;;;14.72;57.82
74329;BME280;62749;51.982;5.916;2022-11-02T11:54:20;101907.38;;;14.69;58.00
74329;BME280;62749;51.982;5.916;2022-11-02T11:56:52;101906.06;;;14.80;57.62
74329;BME280;62749;51.982;5.916;2022-11-02T11:59:42;101902.16;;;14.66;57.38
74329;BME280;62749;51.982;5.916;2022-11-02T12:02:21;101905.94;;;14.61;58.05
74329;BME280;62749;51.982;5.916;2022-11-02T12:05:02;101912.56;;;14.72;58.13
74329;BME280;62749;51.982;5.916;2022-11-02T12:07:59;101905.94;;;14.83;56.49
74329;BME280;62749;51.982;5.916;2022-11-02T12:10:48;101896.31;;;14.80;56.59
74329;BME280;62749;51.982;5.916;2022-11-02T12:13:41;101884.72;;;14.81;55.67
74329;BME280;62749;51.982;5.916;2022-11-02T12:16:26;101882.53;;;14.91;55.65
74329;BME280;62749;51.982;5.916;2022-11-02T12:19:13;101887.47;;;15.00;56.47
74329;BME280;62749;51.982;5.916;2022-11-02T12:22:00;101882.59;;;14.90;55.19
74329;BME280;62749;51.982;5.916;2022-11-02T12:24:58;101881.13;;;15.03;54.81
74329;BME280;62749;51.982;5.916;2022-11-02T12:27:42;101883.59;;;15.08;55.05
74329;BME280;62749;51.982;5.916;2022-11-02T12:30:19;101883.38;;;15.12;53.89
74329;BME280;62749;51.982;5.916;2022-11-02T12:33:05;101886.00;;;15.14;53.50
74329;BME280;62749;51.982;5.916;2022-11-02T12:35:52;101889.25;;;15.00;53.59
74329;BME280;62749;51.982;5.916;2022-11-02T12:38:44;101884.31;;;15.11;53.23
74329;BME280;62749;51.982;5.916;2022-11-02T12:41:29;101884.91;;;15.18;54.44
74329;BME280;62749;51.982;5.916;2022-11-02T12:44:18;101873.09;;;15.25;53.51
74329;BME280;62749;51.982;5.916;2022-11-02T12:46:59;101879.03;;;15.51;52.56
74329;BME280;62749;51.982;5.916;2022-11-02T12:49:45;101865.16;;;15.63;50.90
74329;BME280;62749;51.982;5.916;2022-11-02T12:52:27;101868.72;;;15.43;50.26
74329;BME280;62749;51.982;5.916;2022-11-02T12:55:11;101866.44;;;15.55;51.21
74329;BME280;62749;51.982;5.916;2022-11-02T12:57:43;101850.69;;;15.69;50.44
74329;BME280;62749;51.982;5.916;2022-11-02T13:00:18;101856.03;;;15.88;50.74
74329;BME280;62749;51.982;5.916;2022-11-02T13:03:01;101853.13;;;15.93;51.33
74329;BME280;62749;51.982;5.916;2022-11-02T13:05:39;101851.66;;;16.24;51.59
74329;BME280;62749;51.982;5.916;2022-11-02T13:08:15;101846.00;;;16.30;49.81
74329;BME280;62749;51.982;5.916;2022-11-02T13:10:50;101858.69;;;16.07;49.93
74329;BME280;62749;51.982;5.916;2022-11-02T13:13:27;101862.91;;;16.31;49.40
74329;BME280;62749;51.982;5.916;2022-11-02T13:16:00;101863.50;;;16.36;49.16
74329;BME280;62749;51.982;5.916;2022-11-02T13:18:36;101862.72;;;16.34;49.67
74329;BME280;62749;51.982;5.916;2022-11-02T13:21:11;101854.19;;;16.45;48.42
74329;BME280;62749;51.982;5.916;2022-11-02T13:23:46;101857.66;;;16.47;48.33
74329;BME280;62749;51.982;5.916;2022-11-02T13:26:26;101861.94;;;16.32;48.66
74329;BME280;62749;51.982;5.916;2022-11-02T13:29:03;101853.31;;;16.26;49.69
74329;BME280;62749;51.982;5.916;2022-11-02T13:31:40;101855.78;;;16.49;49.10
74329;BME280;62749;51.982;5.916;2022-11-02T13:34:17;101844.63;;;16.58;48.55
74329;BME280;62749;51.982;5.916;2022-11-02T13:36:50;101845.97;;;16.49;48.94
74329;BME280;62749;51.982;5.916;2022-11-02T13:39:27;101845.50;;;16.59;47.21
74329;BME280;62749;51.982;5.916;2022-11-02T13:42:16;101842.19;;;16.36;47.37
74329;BME280;62749;51.982;5.916;2022-11-02T13:45:10;101831.38;;;16.56;47.16